sensor_id;sensor_type;location;lat;lon;timestamp;P1;durP1;ratioP1;P2;durP2;ratioP2
1346;SDS011;667;48.796;9.480;2023-03-13T00:01:41;6.57;;;3.33;;
1346;SDS011;667;48.796;9.480;2023-03-13T00:04:10;5.70;;;3.05;;
1346;SDS011;667;48.796;9.480;2023-03-13T00:06:36;7.80;;;2.67;;
1346;SDS011;667;48.796;9.480;2023-03-13T00:09:04;5.15;;;2.38;;
1346;SDS011;667;48.796;9.480;2023-03-13T00:11:31;4.30;;;2.53;;
1346;SDS011;667;48.796;9.480;2023-03-13T00:13:57;6.83;;;2.53;;
1346;SDS011;667;48.796;9.480;2023-03-13T00:16:26;6.47;;;2.17;;
1346;SDS011;667;48.796;9.480;2023-03-13T00:18:53;6.88;;;2.17;;
1346;SDS011;667;48.796;9.480;2023-03-13T00:21:21;4.35;;;2.40;;
1346;SDS011;667;48.796;9.480;2023-03-13T00:23:50;7.50;;;2.47;;
1346;SDS011;667;48.796;9.480;2023-03-13T00:26:17;6.53;;;2.42;;
1346;SDS011;667;48.796;9.480;2023-03-13T00:28:44;6.57;;;2.20;;
1346;SDS011;667;48.796;9.480;2023-03-13T00:31:11;5.65;;;2.65;;
1346;SDS011;667;48.796;9.480;2023-03-13T00:33:42;6.05;;;2.60;;
1346;SDS011;667;48.796;9.480;2023-03-13T00:36:16;5.95;;;2.88;;
1346;SDS011;667;48.796;9.480;2023-03-13T00:38:43;7.85;;;3.03;;
1346;SDS011;667;48.796;9.480;2023-03-13T00:41:11;5.38;;;3.00;;
1346;SDS011;667;48.796;9.480;2023-03-13T00:43:38;4.50;;;2.65;;
1346;SDS011;667;48.796;9.480;2023-03-13T00:46:05;8.25;;;2.80;;
1346;SDS011;667;48.796;9.480;2023-03-13T00:48:31;7.07;;;2.25;;
1346;SDS011;667;48.796;9.480;2023-03-13T00:50:57;5.03;;;2.27;;
1346;SDS011;667;48.796;9.480;2023-03-13T00:53:23;6.85;;;2.53;;
1346;SDS011;667;48.796;9.480;2023-03-13T00:58:17;8.20;;;3.42;;
1346;SDS011;667;48.796;9.480;2023-03-13T01:00:43;5.00;;;2.47;;
1346;SDS011;667;48.796;9.480;2023-03-13T01:03:09;4.80;;;2.57;;
1346;SDS011;667;48.796;9.480;2023-03-13T01:05:34;4.23;;;2.43;;
1346;SDS011;667;48.796;9.480;2023-03-13T01:08:00;6.33;;;2.30;;
1346;SDS011;667;48.796;9.480;2023-03-13T01:10:25;4.40;;;2.33;;
1346;SDS011;667;48.796;9.480;2023-03-13T01:12:51;5.47;;;2.67;;
1346;SDS011;667;48.796;9.480;2023-03-13T01:15:17;9.53;;;2.60;;
1346;SDS011;667;48.796;9.480;2023-03-13T01:17:43;6.78;;;2.38;;
1346;SDS011;667;48.796;9.480;2023-03-13T01:20:10;4.32;;;2.35;;
1346;SDS011;667;48.796;9.480;2023-03-13T01:22:36;2.85;;;2.15;;
1346;SDS011;667;48.796;9.480;2023-03-13T01:25:02;8.20;;;3.03;;
1346;SDS011;667;48.796;9.480;2023-03-13T01:27:29;5.82;;;2.33;;
1346;SDS011;667;48.796;9.480;2023-03-13T01:29:55;5.25;;;2.95;;
1346;SDS011;667;48.796;9.480;2023-03-13T01:32:20;6.63;;;1.97;;
1346;SDS011;667;48.796;9.480;2023-03-13T01:34:46;3.83;;;2.20;;
1346;SDS011;667;48.796;9.480;2023-03-13T01:37:12;7.50;;;2.77;;
1346;SDS011;667;48.796;9.480;2023-03-13T01:39:37;6.10;;;2.40;;
1346;SDS011;667;48.796;9.480;2023-03-13T01:42:03;6.47;;;2.73;;
1346;SDS011;667;48.796;9.480;2023-03-13T01:44:29;4.35;;;3.05;;
1346;SDS011;667;48.796;9.480;2023-03-13T01:47:17;5.05;;;2.35;;
1346;SDS011;667;48.796;9.480;2023-03-13T01:49:42;6.33;;;2.80;;
1346;SDS011;667;48.796;9.480;2023-03-13T01:54:45;4.82;;;2.78;;
1346;SDS011;667;48.796;9.480;2023-03-13T02:00:14;7.35;;;2.30;;
1346;SDS011;667;48.796;9.480;2023-03-13T02:02:41;5.10;;;3.38;;
1346;SDS011;667;48.796;9.480;2023-03-13T02:05:11;5.45;;;2.60;;
1346;SDS011;667;48.796;9.480;2023-03-13T02:07:42;2.85;;;2.00;;
1346;SDS011;667;48.796;9.480;2023-03-13T02:10:17;6.22;;;3.33;;
1346;SDS011;667;48.796;9.480;2023-03-13T02:12:46;6.80;;;2.95;;
1346;SDS011;667;48.796;9.480;2023-03-13T02:17:40;4.07;;;2.60;;
1346;SDS011;667;48.796;9.480;2023-03-13T02:20:07;3.97;;;2.53;;
1346;SDS011;667;48.796;9.480;2023-03-13T02:25:16;4.60;;;2.20;;
1346;SDS011;667;48.796;9.480;2023-03-13T02:27:48;4.00;;;2.15;;
1346;SDS011;667;48.796;9.480;2023-03-13T02:30:25;3.40;;;2.38;;
1346;SDS011;667;48.796;9.480;2023-03-13T02:32:52;5.32;;;2.15;;
1346;SDS011;667;48.796;9.480;2023-03-13T02:35:19;6.00;;;2.35;;
1346;SDS011;667;48.796;9.480;2023-03-13T02:37:48;4.82;;;2.55;;
1346;SDS011;667;48.796;9.480;2023-03-13T02:40:20;5.95;;;2.38;;
1346;SDS011;667;48.796;9.480;2023-03-13T02:42:48;6.05;;;2.47;;
1346;SDS011;667;48.796;9.480;2023-03-13T02:45:16;5.00;;;2.63;;
1346;SDS011;667;48.796;9.480;2023-03-13T02:47:42;6.25;;;2.92;;
1346;SDS011;667;48.796;9.480;2023-03-13T02:50:08;8.20;;;2.90;;
1346;SDS011;667;48.796;9.480;2023-03-13T02:52:44;7.13;;;3.08;;
1346;SDS011;667;48.796;9.480;2023-03-13T02:55:18;14.60;;;3.08;;
1346;SDS011;667;48.796;9.480;2023-03-13T02:57:48;8.55;;;3.03;;
1346;SDS011;667;48.796;9.480;2023-03-13T03:00:15;8.13;;;3.30;;
1346;SDS011;667;48.796;9.480;2023-03-13T03:02:44;13.85;;;3.53;;
1346;SDS011;667;48.796;9.480;2023-03-13T03:05:11;6.38;;;3.30;;
1346;SDS011;667;48.796;9.480;2023-03-13T03:07:37;5.80;;;3.40;;
1346;SDS011;667;48.796;9.480;2023-03-13T03:10:03;9.47;;;4.60;;
1346;SDS011;667;48.796;9.480;2023-03-13T03:12:29;7.50;;;4.10;;
1346;SDS011;667;48.796;9.480;2023-03-13T03:14:55;8.10;;;3.87;;
1346;SDS011;667;48.796;9.480;2023-03-13T03:17:20;5.13;;;2.47;;
1346;SDS011;667;48.796;9.480;2023-03-13T03:19:46;4.13;;;3.20;;
1346;SDS011;667;48.796;9.480;2023-03-13T03:22:11;5.70;;;3.40;;
1346;SDS011;667;48.796;9.480;2023-03-13T03:24:37;7.97;;;3.30;;
1346;SDS011;667;48.796;9.480;2023-03-13T03:27:02;6.07;;;3.27;;
1346;SDS011;667;48.796;9.480;2023-03-13T03:29:28;9.70;;;3.10;;
1346;SDS011;667;48.796;9.480;2023-03-13T03:31:54;5.83;;;2.80;;
1346;SDS011;667;48.796;9.480;2023-03-13T03:34:20;5.73;;;3.13;;
1346;SDS011;667;48.796;9.480;2023-03-13T03:36:45;7.97;;;3.10;;
1346;SDS011;667;48.796;9.480;2023-03-13T03:39:11;5.60;;;3.00;;
1346;SDS011;667;48.796;9.480;2023-03-13T03:41:37;7.40;;;3.07;;
1346;SDS011;667;48.796;9.480;2023-03-13T03:44:03;8.60;;;3.17;;
1346;SDS011;667;48.796;9.480;2023-03-13T03:46:29;9.02;;;3.53;;
1346;SDS011;667;48.796;9.480;2023-03-13T03:48:55;4.47;;;3.00;;
1346;SDS011;667;48.796;9.480;2023-03-13T03:51:21;6.78;;;3.75;;
1346;SDS011;667;48.796;9.480;2023-03-13T03:53:47;7.60;;;3.50;;
1346;SDS011;667;48.796;9.480;2023-03-13T03:56:12;6.50;;;3.00;;
1346;SDS011;667;48.796;9.480;2023-03-13T03:58:38;11.67;;;3.47;;
1346;SDS011;667;48.796;9.480;2023-03-13T04:01:04;10.43;;;3.40;;
1346;SDS011;667;48.796;9.480;2023-03-13T04:03:29;4.90;;;3.27;;
1346;SDS011;667;48.796;9.480;2023-03-13T04:05:55;7.37;;;3.27;;
1346;SDS011;667;48.796;9.480;2023-03-13T04:08:21;5.20;;;2.23;;
1346;SDS011;667;48.796;9.480;2023-03-13T04:10:47;10.30;;;3.50;;
1346;SDS011;667;48.796;9.480;2023-03-13T04:13:12;8.40;;;2.97;;
1346;SDS011;667;48.796;9.480;2023-03-13T04:15:38;7.20;;;3.40;;
1346;SDS011;667;48.796;9.480;2023-03-13T04:18:05;8.93;;;3.45;;
1346;SDS011;667;48.796;9.480;2023-03-13T04:20:31;5.83;;;2.80;;
1346;SDS011;667;48.796;9.480;2023-03-13T04:22:56;11.50;;;3.00;;
1346;SDS011;667;48.796;9.480;2023-03-13T04:25:22;8.27;;;2.70;;
1346;SDS011;667;48.796;9.480;2023-03-13T04:27:48;10.67;;;2.90;;
1346;SDS011;667;48.796;9.480;2023-03-13T04:30:14;4.97;;;2.73;;
1346;SDS011;667;48.796;9.480;2023-03-13T04:32:39;4.83;;;2.60;;
1346;SDS011;667;48.796;9.480;2023-03-13T04:35:05;7.13;;;3.07;;
1346;SDS011;667;48.796;9.480;2023-03-13T04:37:31;7.97;;;3.40;;
1346;SDS011;667;48.796;9.480;2023-03-13T04:39:56;6.93;;;2.97;;
1346;SDS011;667;48.796;9.480;2023-03-13T04:42:22;7.23;;;2.77;;
1346;SDS011;667;48.796;9.480;2023-03-13T04:44:47;8.57;;;3.27;;
1346;SDS011;667;48.796;9.480;2023-03-13T04:47:13;6.83;;;3.57;;
1346;SDS011;667;48.796;9.480;2023-03-13T04:49:39;4.47;;;2.50;;
1346;SDS011;667;48.796;9.480;2023-03-13T04:52:04;5.30;;;3.03;;
1346;SDS011;667;48.796;9.480;2023-03-13T04:54:30;6.50;;;2.87;;
1346;SDS011;667;48.796;9.480;2023-03-13T04:56:56;10.23;;;4.00;;
1346;SDS011;667;48.796;9.480;2023-03-13T04:59:21;10.13;;;4.13;;
1346;SDS011;667;48.796;9.480;2023-03-13T05:01:47;8.00;;;3.57;;
1346;SDS011;667;48.796;9.480;2023-03-13T05:04:12;6.57;;;3.10;;
1346;SDS011;667;48.796;9.480;2023-03-13T05:06:38;4.27;;;2.77;;
1346;SDS011;667;48.796;9.480;2023-03-13T05:09:04;5.37;;;2.30;;
1346;SDS011;667;48.796;9.480;2023-03-13T05:11:30;9.35;;;3.25;;
1346;SDS011;667;48.796;9.480;2023-03-13T05:13:56;4.47;;;2.67;;
1346;SDS011;667;48.796;9.480;2023-03-13T05:16:22;6.20;;;2.67;;
1346;SDS011;667;48.796;9.480;2023-03-13T05:18:48;4.90;;;2.67;;
1346;SDS011;667;48.796;9.480;2023-03-13T05:21:13;5.67;;;2.40;;
1346;SDS011;667;48.796;9.480;2023-03-13T05:23:39;5.50;;;2.50;;
1346;SDS011;667;48.796;9.480;2023-03-13T05:26:04;4.97;;;2.30;;
1346;SDS011;667;48.796;9.480;2023-03-13T05:28:30;5.47;;;1.47;;
1346;SDS011;667;48.796;9.480;2023-03-13T05:30:56;4.40;;;2.20;;
1346;SDS011;667;48.796;9.480;2023-03-13T05:33:21;2.80;;;2.13;;
1346;SDS011;667;48.796;9.480;2023-03-13T05:35:47;5.73;;;1.73;;
1346;SDS011;667;48.796;9.480;2023-03-13T05:38:12;5.23;;;1.40;;
1346;SDS011;667;48.796;9.480;2023-03-13T05:40:38;3.30;;;1.10;;
1346;SDS011;667;48.796;9.480;2023-03-13T05:43:04;3.40;;;1.73;;
1346;SDS011;667;48.796;9.480;2023-03-13T05:45:30;1.77;;;1.20;;
1346;SDS011;667;48.796;9.480;2023-03-13T05:47:55;2.10;;;1.00;;
1346;SDS011;667;48.796;9.480;2023-03-13T05:50:22;2.17;;;1.45;;
1346;SDS011;667;48.796;9.480;2023-03-13T05:52:48;3.30;;;1.38;;
1346;SDS011;667;48.796;9.480;2023-03-13T05:55:14;1.77;;;0.93;;
1346;SDS011;667;48.796;9.480;2023-03-13T05:57:42;2.53;;;1.20;;
1346;SDS011;667;48.796;9.480;2023-03-13T06:00:09;1.42;;;1.05;;
1346;SDS011;667;48.796;9.480;2023-03-13T06:02:35;2.50;;;0.88;;
1346;SDS011;667;48.796;9.480;2023-03-13T06:05:01;2.00;;;1.00;;
1346;SDS011;667;48.796;9.480;2023-03-13T06:07:27;2.95;;;1.85;;
1346;SDS011;667;48.796;9.480;2023-03-13T06:09:52;4.27;;;1.30;;
1346;SDS011;667;48.796;9.480;2023-03-13T06:12:18;1.90;;;0.97;;
1346;SDS011;667;48.796;9.480;2023-03-13T06:14:43;1.70;;;1.10;;
1346;SDS011;667;48.796;9.480;2023-03-13T06:17:09;2.37;;;1.10;;
1346;SDS011;667;48.796;9.480;2023-03-13T06:19:34;1.63;;;1.30;;
1346;SDS011;667;48.796;9.480;2023-03-13T06:22:00;1.93;;;1.40;;
1346;SDS011;667;48.796;9.480;2023-03-13T06:24:25;2.13;;;1.20;;
1346;SDS011;667;48.796;9.480;2023-03-13T06:26:51;2.27;;;1.40;;
1346;SDS011;667;48.796;9.480;2023-03-13T06:29:17;1.87;;;0.93;;
1346;SDS011;667;48.796;9.480;2023-03-13T06:31:42;1.07;;;1.00;;
1346;SDS011;667;48.796;9.480;2023-03-13T06:34:11;2.20;;;1.00;;
1346;SDS011;667;48.796;9.480;2023-03-13T06:36:38;1.90;;;1.17;;
1346;SDS011;667;48.796;9.480;2023-03-13T06:39:03;3.67;;;1.40;;
1346;SDS011;667;48.796;9.480;2023-03-13T06:41:29;1.47;;;1.17;;
1346;SDS011;667;48.796;9.480;2023-03-13T06:43:55;1.20;;;1.10;;
1346;SDS011;667;48.796;9.480;2023-03-13T06:46:21;3.70;;;1.13;;
1346;SDS011;667;48.796;9.480;2023-03-13T06:48:48;3.03;;;1.38;;
1346;SDS011;667;48.796;9.480;2023-03-13T06:51:15;2.83;;;1.15;;
1346;SDS011;667;48.796;9.480;2023-03-13T06:53:42;2.22;;;1.25;;
1346;SDS011;667;48.796;9.480;2023-03-13T06:56:08;2.93;;;0.90;;
1346;SDS011;667;48.796;9.480;2023-03-13T06:58:34;1.87;;;1.20;;
1346;SDS011;667;48.796;9.480;2023-03-13T07:01:06;2.20;;;0.82;;
1346;SDS011;667;48.796;9.480;2023-03-13T07:03:33;5.00;;;3.08;;
1346;SDS011;667;48.796;9.480;2023-03-13T07:06:00;2.60;;;1.30;;
1346;SDS011;667;48.796;9.480;2023-03-13T07:08:26;1.77;;;1.00;;
1346;SDS011;667;48.796;9.480;2023-03-13T07:10:53;1.90;;;1.10;;
1346;SDS011;667;48.796;9.480;2023-03-13T07:13:22;1.30;;;1.10;;
1346;SDS011;667;48.796;9.480;2023-03-13T07:15:47;2.30;;;0.80;;
1346;SDS011;667;48.796;9.480;2023-03-13T07:18:13;1.63;;;0.93;;
1346;SDS011;667;48.796;9.480;2023-03-13T07:20:39;1.10;;;0.80;;
1346;SDS011;667;48.796;9.480;2023-03-13T07:23:04;0.90;;;0.70;;
1346;SDS011;667;48.796;9.480;2023-03-13T07:25:30;0.83;;;0.77;;
1346;SDS011;667;48.796;9.480;2023-03-13T07:27:55;2.07;;;1.00;;
1346;SDS011;667;48.796;9.480;2023-03-13T07:30:21;1.80;;;0.60;;
1346;SDS011;667;48.796;9.480;2023-03-13T07:32:47;1.37;;;0.63;;
1346;SDS011;667;48.796;9.480;2023-03-13T07:35:12;1.20;;;1.00;;
1346;SDS011;667;48.796;9.480;2023-03-13T07:37:38;1.20;;;0.73;;
1346;SDS011;667;48.796;9.480;2023-03-13T07:40:03;1.57;;;0.80;;
1346;SDS011;667;48.796;9.480;2023-03-13T07:42:29;1.30;;;0.80;;
1346;SDS011;667;48.796;9.480;2023-03-13T07:44:55;1.97;;;0.80;;
1346;SDS011;667;48.796;9.480;2023-03-13T07:47:20;0.90;;;0.83;;
1346;SDS011;667;48.796;9.480;2023-03-13T07:49:46;1.67;;;0.80;;
1346;SDS011;667;48.796;9.480;2023-03-13T07:52:11;1.00;;;0.67;;
1346;SDS011;667;48.796;9.480;2023-03-13T07:54:37;0.73;;;0.70;;
1346;SDS011;667;48.796;9.480;2023-03-13T07:57:03;2.20;;;0.70;;
1346;SDS011;667;48.796;9.480;2023-03-13T07:59:28;0.80;;;0.70;;
1346;SDS011;667;48.796;9.480;2023-03-13T08:01:54;0.60;;;0.60;;
1346;SDS011;667;48.796;9.480;2023-03-13T08:04:20;0.97;;;0.80;;
1346;SDS011;667;48.796;9.480;2023-03-13T08:06:46;0.90;;;0.70;;
1346;SDS011;667;48.796;9.480;2023-03-13T08:09:11;1.30;;;0.83;;
1346;SDS011;667;48.796;9.480;2023-03-13T08:11:37;1.27;;;0.50;;
1346;SDS011;667;48.796;9.480;2023-03-13T08:14:08;1.10;;;0.73;;
1346;SDS011;667;48.796;9.480;2023-03-13T08:16:34;1.50;;;0.88;;
1346;SDS011;667;48.796;9.480;2023-03-13T08:19:00;1.27;;;1.00;;
1346;SDS011;667;48.796;9.480;2023-03-13T08:21:32;0.80;;;0.80;;
1346;SDS011;667;48.796;9.480;2023-03-13T08:24:00;1.30;;;0.85;;
1346;SDS011;667;48.796;9.480;2023-03-13T08:26:30;0.95;;;0.80;;
1346;SDS011;667;48.796;9.480;2023-03-13T08:28:58;1.48;;;0.85;;
1346;SDS011;667;48.796;9.480;2023-03-13T08:31:29;0.85;;;0.70;;
1346;SDS011;667;48.796;9.480;2023-03-13T08:33:56;1.05;;;0.90;;
1346;SDS011;667;48.796;9.480;2023-03-13T08:36:26;3.15;;;1.60;;
1346;SDS011;667;48.796;9.480;2023-03-13T08:38:57;1.98;;;1.15;;
1346;SDS011;667;48.796;9.480;2023-03-13T08:41:30;1.30;;;1.20;;
1346;SDS011;667;48.796;9.480;2023-03-13T08:43:59;3.55;;;2.15;;
1346;SDS011;667;48.796;9.480;2023-03-13T08:46:25;0.77;;;0.70;;
1346;SDS011;667;48.796;9.480;2023-03-13T08:48:53;2.10;;;0.97;;
1346;SDS011;667;48.796;9.480;2023-03-13T08:51:20;0.80;;;0.60;;
1346;SDS011;667;48.796;9.480;2023-03-13T08:53:47;1.20;;;1.03;;
1346;SDS011;667;48.796;9.480;2023-03-13T08:56:14;1.57;;;1.00;;
1346;SDS011;667;48.796;9.480;2023-03-13T08:58:41;1.70;;;0.83;;
1346;SDS011;667;48.796;9.480;2023-03-13T09:01:08;1.10;;;0.90;;
1346;SDS011;667;48.796;9.480;2023-03-13T09:03:35;1.23;;;1.07;;
1346;SDS011;667;48.796;9.480;2023-03-13T09:06:01;1.00;;;0.90;;
1346;SDS011;667;48.796;9.480;2023-03-13T09:08:28;1.00;;;0.90;;
1346;SDS011;667;48.796;9.480;2023-03-13T09:10:54;3.50;;;1.20;;
1346;SDS011;667;48.796;9.480;2023-03-13T09:13:24;1.07;;;0.80;;
1346;SDS011;667;48.796;9.480;2023-03-13T09:15:58;1.10;;;0.90;;
1346;SDS011;667;48.796;9.480;2023-03-13T09:18:29;1.50;;;1.40;;
1346;SDS011;667;48.796;9.480;2023-03-13T09:20:54;1.47;;;0.90;;
1346;SDS011;667;48.796;9.480;2023-03-13T09:23:20;1.80;;;0.93;;
1346;SDS011;667;48.796;9.480;2023-03-13T09:25:47;1.00;;;1.00;;
1346;SDS011;667;48.796;9.480;2023-03-13T09:28:13;1.17;;;1.07;;
1346;SDS011;667;48.796;9.480;2023-03-13T09:30:39;1.03;;;0.90;;
1346;SDS011;667;48.796;9.480;2023-03-13T09:33:05;3.40;;;1.37;;
1346;SDS011;667;48.796;9.480;2023-03-13T09:35:30;2.30;;;1.23;;
1346;SDS011;667;48.796;9.480;2023-03-13T09:37:56;2.50;;;1.23;;
1346;SDS011;667;48.796;9.480;2023-03-13T09:40:22;1.00;;;0.93;;
1346;SDS011;667;48.796;9.480;2023-03-13T09:42:56;1.43;;;1.20;;
1346;SDS011;667;48.796;9.480;2023-03-13T09:45:30;1.43;;;0.97;;
1346;SDS011;667;48.796;9.480;2023-03-13T09:48:05;1.47;;;0.90;;
1346;SDS011;667;48.796;9.480;2023-03-13T09:50:41;1.10;;;1.00;;
1346;SDS011;667;48.796;9.480;2023-03-13T09:53:12;1.23;;;1.13;;
1346;SDS011;667;48.796;9.480;2023-03-13T09:55:40;1.10;;;0.90;;
1346;SDS011;667;48.796;9.480;2023-03-13T09:58:18;1.90;;;1.20;;
1346;SDS011;667;48.796;9.480;2023-03-13T10:00:53;1.10;;;1.00;;
1346;SDS011;667;48.796;9.480;2023-03-13T10:05:59;1.97;;;1.10;;
1346;SDS011;667;48.796;9.480;2023-03-13T10:08:31;1.20;;;1.10;;
1346;SDS011;667;48.796;9.480;2023-03-13T10:13:34;1.87;;;1.10;;
1346;SDS011;667;48.796;9.480;2023-03-13T10:16:44;1.20;;;1.10;;
1346;SDS011;667;48.796;9.480;2023-03-13T10:18:57;1.50;;;1.30;;
1346;SDS011;667;48.796;9.480;2023-03-13T10:21:25;2.30;;;1.27;;
1346;SDS011;667;48.796;9.480;2023-03-13T10:24:01;2.17;;;1.67;;
1346;SDS011;667;48.796;9.480;2023-03-13T10:26:40;1.27;;;1.17;;
1346;SDS011;667;48.796;9.480;2023-03-13T10:31:40;1.43;;;1.33;;
1346;SDS011;667;48.796;9.480;2023-03-13T10:34:14;2.70;;;1.60;;
1346;SDS011;667;48.796;9.480;2023-03-13T10:36:47;1.60;;;1.50;;
1346;SDS011;667;48.796;9.480;2023-03-13T10:39:15;2.00;;;1.53;;
1346;SDS011;667;48.796;9.480;2023-03-13T10:41:42;2.10;;;1.33;;
1346;SDS011;667;48.796;9.480;2023-03-13T10:44:15;1.40;;;1.30;;
1346;SDS011;667;48.796;9.480;2023-03-13T10:46:46;2.67;;;2.43;;
1346;SDS011;667;48.796;9.480;2023-03-13T10:49:20;2.13;;;1.40;;
1346;SDS011;667;48.796;9.480;2023-03-13T10:51:49;1.80;;;1.47;;
1346;SDS011;667;48.796;9.480;2023-03-13T10:54:18;3.23;;;1.57;;
1346;SDS011;667;48.796;9.480;2023-03-13T10:56:48;1.57;;;1.47;;
1346;SDS011;667;48.796;9.480;2023-03-13T10:59:22;2.00;;;1.67;;
1346;SDS011;667;48.796;9.480;2023-03-13T11:01:49;1.60;;;1.50;;
1346;SDS011;667;48.796;9.480;2023-03-13T11:04:24;2.20;;;1.80;;
1346;SDS011;667;48.796;9.480;2023-03-13T11:07:00;2.63;;;1.70;;
1346;SDS011;667;48.796;9.480;2023-03-13T11:09:27;2.13;;;1.93;;
1346;SDS011;667;48.796;9.480;2023-03-13T11:11:54;2.20;;;1.83;;
1346;SDS011;667;48.796;9.480;2023-03-13T11:14:25;2.10;;;1.90;;
1346;SDS011;667;48.796;9.480;2023-03-13T11:16:55;4.70;;;1.50;;
1346;SDS011;667;48.796;9.480;2023-03-13T11:19:34;2.20;;;1.90;;
1346;SDS011;667;48.796;9.480;2023-03-13T11:22:20;1.70;;;1.60;;
1346;SDS011;667;48.796;9.480;2023-03-13T11:27:41;2.10;;;1.70;;
1346;SDS011;667;48.796;9.480;2023-03-13T11:33:00;1.80;;;1.70;;
1346;SDS011;667;48.796;9.480;2023-03-13T11:35:48;2.50;;;1.83;;
1346;SDS011;667;48.796;9.480;2023-03-13T11:38:43;3.73;;;2.03;;
1346;SDS011;667;48.796;9.480;2023-03-13T11:52:48;1.93;;;1.57;;
1346;SDS011;667;48.796;9.480;2023-03-13T12:01:13;3.50;;;1.70;;
1346;SDS011;667;48.796;9.480;2023-03-13T12:03:58;3.00;;;1.60;;
1346;SDS011;667;48.796;9.480;2023-03-13T12:06:39;2.10;;;1.63;;
1346;SDS011;667;48.796;9.480;2023-03-13T12:16:54;1.77;;;1.67;;
1346;SDS011;667;48.796;9.480;2023-03-13T12:19:35;1.87;;;1.70;;
1346;SDS011;667;48.796;9.480;2023-03-13T12:25:12;2.00;;;1.60;;
1346;SDS011;667;48.796;9.480;2023-03-13T12:27:45;3.03;;;1.70;;
1346;SDS011;667;48.796;9.480;2023-03-13T12:33:18;1.97;;;1.70;;
1346;SDS011;667;48.796;9.480;2023-03-13T12:35:48;2.70;;;1.37;;
1346;SDS011;667;48.796;9.480;2023-03-13T12:38:27;1.70;;;1.60;;
1346;SDS011;667;48.796;9.480;2023-03-13T12:41:14;6.50;;;1.60;;
1346;SDS011;667;48.796;9.480;2023-03-13T12:44:10;3.13;;;1.73;;
1346;SDS011;667;48.796;9.480;2023-03-13T12:46:51;3.80;;;1.67;;
1346;SDS011;667;48.796;9.480;2023-03-13T12:57:50;2.43;;;2.13;;
1346;SDS011;667;48.796;9.480;2023-03-13T13:00:24;1.57;;;1.47;;
1346;SDS011;667;48.796;9.480;2023-03-13T13:05:58;2.07;;;1.50;;
1346;SDS011;667;48.796;9.480;2023-03-13T13:08:26;3.60;;;1.97;;
1346;SDS011;667;48.796;9.480;2023-03-13T13:16:41;4.27;;;1.60;;
1346;SDS011;667;48.796;9.480;2023-03-13T13:24:54;4.70;;;2.27;;
1346;SDS011;667;48.796;9.480;2023-03-13T13:27:26;2.03;;;1.83;;
1346;SDS011;667;48.796;9.480;2023-03-13T13:29:53;4.70;;;1.90;;
1346;SDS011;667;48.796;9.480;2023-03-13T13:32:30;2.37;;;1.83;;
1346;SDS011;667;48.796;9.480;2023-03-13T13:35:00;1.60;;;1.50;;
1346;SDS011;667;48.796;9.480;2023-03-13T13:37:30;1.60;;;1.50;;
1346;SDS011;667;48.796;9.480;2023-03-13T13:42:55;2.77;;;1.70;;
1346;SDS011;667;48.796;9.480;2023-03-13T13:51:21;3.63;;;1.97;;
1346;SDS011;667;48.796;9.480;2023-03-13T13:53:44;2.87;;;1.73;;
1346;SDS011;667;48.796;9.480;2023-03-13T13:59:02;1.40;;;1.30;;
1346;SDS011;667;48.796;9.480;2023-03-13T14:01:44;2.97;;;1.70;;
1346;SDS011;667;48.796;9.480;2023-03-13T14:04:15;2.30;;;1.60;;
1346;SDS011;667;48.796;9.480;2023-03-13T14:06:58;2.97;;;1.47;;
1346;SDS011;667;48.796;9.480;2023-03-13T14:12:00;1.60;;;1.50;;
1346;SDS011;667;48.796;9.480;2023-03-13T14:14:25;2.00;;;1.50;;
1346;SDS011;667;48.796;9.480;2023-03-13T14:16:52;5.10;;;1.60;;
1346;SDS011;667;48.796;9.480;2023-03-13T14:19:27;2.70;;;1.90;;
1346;SDS011;667;48.796;9.480;2023-03-13T14:22:07;6.10;;;2.03;;
1346;SDS011;667;48.796;9.480;2023-03-13T14:24:35;3.50;;;1.80;;
1346;SDS011;667;48.796;9.480;2023-03-13T14:27:01;2.23;;;1.80;;
1346;SDS011;667;48.796;9.480;2023-03-13T14:29:39;3.13;;;1.50;;
1346;SDS011;667;48.796;9.480;2023-03-13T14:32:04;1.90;;;1.70;;
1346;SDS011;667;48.796;9.480;2023-03-13T14:34:31;2.70;;;1.73;;
1346;SDS011;667;48.796;9.480;2023-03-13T14:36:57;3.00;;;1.43;;
1346;SDS011;667;48.796;9.480;2023-03-13T14:42:00;2.13;;;1.93;;
1346;SDS011;667;48.796;9.480;2023-03-13T14:44:39;2.60;;;2.07;;
1346;SDS011;667;48.796;9.480;2023-03-13T14:47:12;3.20;;;2.00;;
1346;SDS011;667;48.796;9.480;2023-03-13T14:49:54;2.27;;;1.60;;
1346;SDS011;667;48.796;9.480;2023-03-13T14:52:25;2.63;;;1.60;;
1346;SDS011;667;48.796;9.480;2023-03-13T14:54:59;2.27;;;1.30;;
1346;SDS011;667;48.796;9.480;2023-03-13T14:57:28;3.50;;;1.23;;
1346;SDS011;667;48.796;9.480;2023-03-13T14:59:55;1.70;;;1.40;;
1346;SDS011;667;48.796;9.480;2023-03-13T15:06:13;2.00;;;1.57;;
1346;SDS011;667;48.796;9.480;2023-03-13T15:08:42;3.77;;;1.87;;
1346;SDS011;667;48.796;9.480;2023-03-13T15:13:56;1.53;;;1.43;;
1346;SDS011;667;48.796;9.480;2023-03-13T15:16:22;1.60;;;1.47;;
1346;SDS011;667;48.796;9.480;2023-03-13T15:18:49;1.50;;;1.30;;
1346;SDS011;667;48.796;9.480;2023-03-13T15:23:57;1.60;;;1.20;;
1346;SDS011;667;48.796;9.480;2023-03-13T15:26:26;2.13;;;1.50;;
1346;SDS011;667;48.796;9.480;2023-03-13T15:28:52;2.03;;;1.70;;
1346;SDS011;667;48.796;9.480;2023-03-13T15:31:17;1.97;;;1.70;;
1346;SDS011;667;48.796;9.480;2023-03-13T15:33:46;2.33;;;1.70;;
1346;SDS011;667;48.796;9.480;2023-03-13T15:36:14;1.47;;;1.30;;
1346;SDS011;667;48.796;9.480;2023-03-13T15:38:39;2.67;;;1.70;;
1346;SDS011;667;48.796;9.480;2023-03-13T15:41:05;1.93;;;1.60;;
1346;SDS011;667;48.796;9.480;2023-03-13T15:43:33;3.27;;;2.97;;
1346;SDS011;667;48.796;9.480;2023-03-13T15:45:58;3.90;;;3.00;;
1346;SDS011;667;48.796;9.480;2023-03-13T15:48:26;3.60;;;3.00;;
1346;SDS011;667;48.796;9.480;2023-03-13T15:50:57;4.03;;;2.20;;
1346;SDS011;667;48.796;9.480;2023-03-13T15:53:26;3.00;;;2.43;;
1346;SDS011;667;48.796;9.480;2023-03-13T15:55:55;3.30;;;2.93;;
1346;SDS011;667;48.796;9.480;2023-03-13T15:58:22;2.30;;;1.63;;
1346;SDS011;667;48.796;9.480;2023-03-13T16:00:49;4.73;;;1.80;;
1346;SDS011;667;48.796;9.480;2023-03-13T16:03:20;2.43;;;2.00;;
1346;SDS011;667;48.796;9.480;2023-03-13T16:05:49;2.00;;;1.87;;
1346;SDS011;667;48.796;9.480;2023-03-13T16:08:16;3.73;;;2.20;;
1346;SDS011;667;48.796;9.480;2023-03-13T16:10:43;3.03;;;2.10;;
1346;SDS011;667;48.796;9.480;2023-03-13T16:13:10;2.63;;;1.90;;
1346;SDS011;667;48.796;9.480;2023-03-13T16:15:36;3.43;;;1.50;;
1346;SDS011;667;48.796;9.480;2023-03-13T16:18:02;3.47;;;1.50;;
1346;SDS011;667;48.796;9.480;2023-03-13T16:20:29;2.67;;;1.23;;
1346;SDS011;667;48.796;9.480;2023-03-13T16:22:56;1.73;;;1.37;;
1346;SDS011;667;48.796;9.480;2023-03-13T16:25:22;1.80;;;1.03;;
1346;SDS011;667;48.796;9.480;2023-03-13T16:27:49;3.20;;;1.10;;
1346;SDS011;667;48.796;9.480;2023-03-13T16:32:45;1.77;;;1.60;;
1346;SDS011;667;48.796;9.480;2023-03-13T16:35:11;1.63;;;1.53;;
1346;SDS011;667;48.796;9.480;2023-03-13T16:37:37;6.50;;;1.43;;
1346;SDS011;667;48.796;9.480;2023-03-13T16:40:10;2.83;;;1.33;;
1346;SDS011;667;48.796;9.480;2023-03-13T16:42:41;3.37;;;1.50;;
1346;SDS011;667;48.796;9.480;2023-03-13T16:45:07;1.40;;;1.30;;
1346;SDS011;667;48.796;9.480;2023-03-13T16:47:33;4.13;;;2.40;;
1346;SDS011;667;48.796;9.480;2023-03-13T16:50:00;4.87;;;2.50;;
1346;SDS011;667;48.796;9.480;2023-03-13T16:52:46;4.83;;;2.87;;
1346;SDS011;667;48.796;9.480;2023-03-13T16:55:11;8.93;;;6.97;;
1346;SDS011;667;48.796;9.480;2023-03-13T16:57:37;7.37;;;5.60;;
1346;SDS011;667;48.796;9.480;2023-03-13T17:00:08;4.60;;;3.80;;
1346;SDS011;667;48.796;9.480;2023-03-13T17:02:40;4.93;;;3.20;;
1346;SDS011;667;48.796;9.480;2023-03-13T17:05:05;3.47;;;2.50;;
1346;SDS011;667;48.796;9.480;2023-03-13T17:07:31;6.30;;;1.97;;
1346;SDS011;667;48.796;9.480;2023-03-13T17:09:57;3.60;;;1.50;;
1346;SDS011;667;48.796;9.480;2023-03-13T17:12:23;4.13;;;1.57;;
1346;SDS011;667;48.796;9.480;2023-03-13T17:14:48;4.57;;;1.73;;
1346;SDS011;667;48.796;9.480;2023-03-13T17:17:15;3.70;;;1.67;;
1346;SDS011;667;48.796;9.480;2023-03-13T17:19:43;2.30;;;1.40;;
1346;SDS011;667;48.796;9.480;2023-03-13T17:22:12;7.87;;;1.90;;
1346;SDS011;667;48.796;9.480;2023-03-13T17:24:40;2.30;;;1.27;;
1346;SDS011;667;48.796;9.480;2023-03-13T17:27:12;5.50;;;1.60;;